createdAt,value
2022-09-27T00:02:07.147Z,2.80
2022-09-27T00:04:35.391Z,2.70
2022-09-27T00:07:03.465Z,2.80
2022-09-27T00:09:31.736Z,3.00
2022-09-27T00:12:00.025Z,2.70
2022-09-27T00:14:28.090Z,3.10
2022-09-27T00:16:56.465Z,2.70
2022-09-27T00:19:25.974Z,2.80
2022-09-27T00:21:54.556Z,2.50
2022-09-27T00:24:23.320Z,2.70
2022-09-27T00:26:51.426Z,2.60
2022-09-27T00:29:20.712Z,3.10
2022-09-27T00:31:49.200Z,3.20
2022-09-27T00:34:25.776Z,3.20
2022-09-27T00:36:53.939Z,2.90
2022-09-27T00:39:22.423Z,3.10
2022-09-27T00:41:50.804Z,3.10
2022-09-27T00:44:33.752Z,3.60
2022-09-27T00:47:13.955Z,3.10
2022-09-27T00:49:51.335Z,3.30
2022-09-27T00:52:55.486Z,3.20
2022-09-27T00:55:31.861Z,2.90
2022-09-27T00:58:00.951Z,2.50
2022-09-27T01:00:29.019Z,2.90
2022-09-27T01:02:58.361Z,2.80
2022-09-27T01:05:29.778Z,2.50
2022-09-27T01:08:00.999Z,2.80
2022-09-27T01:10:38.680Z,2.90
2022-09-27T01:13:36.163Z,2.70
2022-09-27T01:16:38.692Z,2.70
2022-09-27T01:19:41.448Z,3.20
2022-09-27T01:22:13.325Z,3.00
2022-09-27T01:24:41.475Z,2.90
2022-09-27T01:27:40.272Z,3.30
2022-09-27T01:30:21.512Z,2.80
2022-09-27T01:33:32.013Z,2.70
2022-09-27T01:36:16.069Z,2.70
2022-09-27T01:39:28.882Z,2.60
2022-09-27T01:42:26.036Z,2.60
2022-09-27T01:45:20.071Z,2.60
2022-09-27T01:48:15.566Z,2.60
2022-09-27T01:51:00.138Z,2.80
2022-09-27T01:53:48.135Z,2.90
2022-09-27T01:56:52.216Z,2.90
2022-09-27T01:59:29.942Z,3.20
2022-09-27T02:02:24.833Z,3.00
2022-09-27T02:05:17.498Z,3.10
2022-09-27T02:08:01.133Z,2.80
2022-09-27T02:10:39.758Z,3.30
2022-09-27T02:13:26.354Z,2.90
2022-09-27T02:16:21.631Z,3.30
2022-09-27T02:19:01.524Z,3.70
2022-09-27T02:21:40.951Z,3.30
2022-09-27T02:24:17.835Z,3.30
2022-09-27T02:26:49.997Z,3.60
2022-09-27T02:29:24.633Z,3.30
2022-09-27T02:31:54.133Z,4.10
2022-09-27T02:34:29.730Z,3.80
2022-09-27T02:36:57.993Z,4.30
2022-09-27T02:39:26.640Z,4.20
2022-09-27T02:42:05.977Z,3.70
2022-09-27T02:44:34.399Z,3.80
2022-09-27T02:47:23.956Z,5.40
2022-09-27T02:50:28.976Z,4.50
2022-09-27T02:53:18.444Z,4.70
2022-09-27T02:56:03.297Z,5.10
2022-09-27T02:59:11.111Z,4.80
2022-09-27T03:02:18.169Z,5.40
2022-09-27T03:05:06.037Z,5.10
2022-09-27T03:07:35.159Z,4.80
2022-09-27T03:10:03.468Z,5.50
2022-09-27T03:12:32.605Z,5.50
2022-09-27T03:15:01.597Z,5.70
2022-09-27T03:18:02.641Z,6.20
2022-09-27T03:20:49.042Z,6.10
2022-09-27T03:23:19.065Z,5.80
2022-09-27T03:25:47.132Z,3.80
2022-09-27T03:28:15.720Z,4.20
2022-09-27T03:30:48.772Z,5.00
2022-09-27T03:33:40.542Z,5.60
2022-09-27T03:36:12.189Z,6.40
2022-09-27T03:38:40.670Z,5.50
2022-09-27T03:41:10.889Z,4.50
2022-09-27T03:43:39.271Z,4.50
2022-09-27T03:46:07.669Z,4.20
2022-09-27T03:48:36.492Z,3.90
2022-09-27T03:51:05.225Z,5.40
2022-09-27T03:53:33.404Z,5.40
2022-09-27T03:56:02.010Z,5.70
2022-09-27T03:58:30.778Z,6.30
2022-09-27T04:00:59.696Z,6.40
2022-09-27T04:03:28.761Z,5.50
2022-09-27T04:06:29.812Z,6.10
2022-09-27T04:08:57.876Z,5.10
2022-09-27T04:11:33.321Z,3.50
2022-09-27T04:14:02.212Z,4.60
2022-09-27T04:16:30.797Z,4.50
2022-09-27T04:19:25.185Z,6.20
2022-09-27T04:22:10.665Z,5.80
2022-09-27T04:24:38.635Z,4.60
2022-09-27T04:27:29.650Z,3.50
2022-09-27T04:29:58.029Z,4.40
2022-09-27T04:32:58.696Z,4.50
2022-09-27T04:36:12.406Z,5.40
2022-09-27T04:38:42.421Z,5.50
2022-09-27T04:41:10.697Z,6.10
2022-09-27T04:43:40.516Z,6.20
2022-09-27T04:46:08.562Z,5.50
2022-09-27T04:48:38.188Z,6.30
2022-09-27T04:51:07.084Z,5.70
2022-09-27T04:53:35.152Z,7.10
2022-09-27T04:56:06.130Z,6.10
2022-09-27T04:58:35.292Z,6.40
2022-09-27T05:01:04.517Z,7.00
2022-09-27T05:03:47.926Z,6.20
2022-09-27T05:06:17.221Z,6.20
2022-09-27T05:08:45.912Z,6.40
2022-09-27T05:11:25.549Z,5.90
2022-09-27T05:14:20.894Z,5.70
2022-09-27T05:17:12.728Z,5.90
2022-09-27T05:20:10.938Z,6.10
2022-09-27T05:22:44.085Z,6.40
2022-09-27T05:25:14.081Z,6.70
2022-09-27T05:27:42.253Z,7.30
2022-09-27T05:30:11.665Z,6.60
2022-09-27T05:32:50.319Z,6.60
2022-09-27T05:35:27.568Z,7.80
2022-09-27T05:38:00.272Z,6.20
2022-09-27T05:40:41.996Z,6.30
2022-09-27T05:43:11.959Z,7.90
2022-09-27T05:45:40.123Z,6.20
2022-09-27T05:48:09.738Z,7.20
2022-09-27T05:50:44.881Z,6.60
2022-09-27T05:53:13.665Z,6.00
2022-09-27T05:55:41.888Z,6.60
2022-09-27T05:58:10.925Z,7.40
2022-09-27T06:00:47.706Z,7.20
2022-09-27T06:03:41.782Z,6.70
2022-09-27T06:06:23.885Z,5.80
2022-09-27T06:08:55.513Z,5.20
2022-09-27T06:11:27.753Z,5.10
2022-09-27T06:13:55.986Z,5.90
2022-09-27T06:16:25.546Z,5.70
2022-09-27T06:18:54.001Z,5.40
2022-09-27T06:21:22.861Z,5.30
2022-09-27T06:23:58.512Z,5.70
2022-09-27T06:26:32.008Z,6.50
2022-09-27T06:29:16.123Z,6.10
2022-09-27T06:31:58.108Z,6.10
2022-09-27T06:34:42.919Z,6.40
2022-09-27T06:37:12.635Z,5.90
2022-09-27T06:39:40.699Z,6.00
2022-09-27T06:42:47.499Z,5.00
2022-09-27T06:45:42.813Z,4.40
2022-09-27T06:48:30.223Z,4.70
2022-09-27T06:51:12.937Z,4.70
2022-09-27T06:53:41.004Z,4.30
2022-09-27T06:56:09.183Z,5.10
2022-09-27T06:59:09.712Z,5.10
2022-09-27T07:01:45.352Z,5.20
2022-09-27T07:04:32.804Z,4.80
2022-09-27T07:07:06.701Z,4.80
2022-09-27T07:10:00.889Z,4.70
2022-09-27T07:12:29.089Z,5.30
2022-09-27T07:14:57.231Z,5.00
2022-09-27T07:17:25.407Z,5.10
2022-09-27T07:19:55.328Z,5.10
2022-09-27T07:22:24.124Z,5.50
2022-09-27T07:24:57.194Z,5.20
2022-09-27T07:27:26.709Z,5.60
2022-09-27T07:29:55.695Z,5.10
2022-09-27T07:32:25.302Z,4.70
2022-09-27T07:34:54.293Z,6.00
2022-09-27T07:37:22.674Z,6.20
2022-09-27T07:39:50.751Z,5.40
2022-09-27T07:42:20.768Z,5.40
2022-09-27T07:44:52.521Z,4.60
2022-09-27T07:47:42.300Z,5.00
2022-09-27T07:50:30.852Z,3.90
2022-09-27T07:53:05.791Z,4.50
2022-09-27T07:55:43.076Z,4.40
2022-09-27T07:58:22.410Z,4.90
2022-09-27T08:00:53.925Z,4.00
2022-09-27T08:03:22.240Z,4.70
2022-09-27T08:05:50.517Z,4.10
2022-09-27T08:08:18.798Z,4.00
2022-09-27T08:10:48.810Z,4.60
2022-09-27T08:13:20.647Z,5.00
2022-09-27T08:15:52.837Z,5.10
2022-09-27T08:18:22.367Z,5.30
2022-09-27T08:21:01.275Z,4.50
2022-09-27T08:23:47.996Z,4.60
2022-09-27T08:26:33.258Z,4.20
2022-09-27T08:29:13.115Z,4.40
2022-09-27T08:31:51.752Z,4.00
2022-09-27T08:34:22.045Z,4.20
2022-09-27T08:36:50.227Z,4.80
2022-09-27T08:39:18.392Z,5.00
2022-09-27T08:41:55.509Z,4.30
2022-09-27T08:44:52.633Z,5.50
2022-09-27T08:47:43.965Z,4.80
2022-09-27T08:50:39.018Z,5.00
2022-09-27T08:53:22.998Z,4.10
2022-09-27T08:55:59.164Z,4.70
2022-09-27T08:58:37.662Z,4.70
2022-09-27T09:01:15.087Z,5.50
2022-09-27T09:04:04.311Z,4.20
2022-09-27T09:07:10.801Z,4.40
2022-09-27T09:09:54.450Z,4.70
2022-09-27T09:13:00.403Z,4.30
2022-09-27T09:15:54.586Z,4.70
2022-09-27T09:18:48.572Z,4.40
2022-09-27T09:22:02.003Z,4.60
2022-09-27T09:25:16.366Z,4.10
2022-09-27T09:28:02.461Z,4.30
2022-09-27T09:30:42.505Z,4.10
2022-09-27T09:33:28.909Z,4.70
2022-09-27T09:36:03.226Z,4.80
2022-09-27T09:38:40.593Z,4.80
2022-09-27T09:41:16.640Z,4.50
2022-09-27T09:44:00.833Z,4.50
2022-09-27T09:46:45.725Z,5.20
2022-09-27T09:49:40.761Z,5.70
2022-09-27T09:52:18.672Z,5.10
2022-09-27T09:54:57.727Z,4.80
2022-09-27T09:57:42.021Z,5.10
2022-09-27T10:00:18.305Z,5.30
2022-09-27T10:02:49.532Z,5.00
2022-09-27T10:05:24.253Z,5.00
2022-09-27T10:08:11.266Z,4.60
2022-09-27T10:10:40.400Z,4.60
2022-09-27T10:13:16.077Z,4.40
2022-09-27T10:15:51.013Z,4.60
2022-09-27T10:18:19.801Z,3.80
2022-09-27T10:21:00.264Z,3.50
2022-09-27T10:23:28.955Z,3.90
2022-09-27T10:26:20.168Z,4.20
2022-09-27T10:28:52.023Z,4.10
2022-09-27T10:31:25.231Z,3.30
2022-09-27T10:34:05.611Z,3.00
2022-09-27T10:37:01.399Z,3.60
2022-09-27T10:39:29.884Z,3.80
2022-09-27T10:41:58.374Z,3.50
2022-09-27T10:44:41.389Z,2.80
2022-09-27T10:47:30.124Z,2.60
2022-09-27T10:50:08.163Z,2.20
2022-09-27T10:53:19.332Z,2.40
2022-09-27T10:55:52.724Z,2.10
2022-09-27T10:58:38.721Z,2.10
2022-09-27T11:01:12.671Z,2.30
2022-09-27T11:04:01.087Z,2.40
2022-09-27T11:06:37.964Z,2.70
2022-09-27T11:09:44.465Z,1.90
2022-09-27T11:12:13.938Z,1.80
2022-09-27T11:14:43.128Z,2.30
2022-09-27T11:17:20.255Z,1.90
2022-09-27T11:20:25.670Z,2.10
2022-09-27T11:23:12.573Z,1.90
2022-09-27T11:25:46.583Z,2.10
2022-09-27T11:28:35.552Z,2.20
2022-09-27T11:31:21.808Z,2.00
2022-09-27T11:33:59.746Z,2.10
2022-09-27T11:37:06.018Z,2.70
2022-09-27T11:39:51.475Z,2.30
2022-09-27T11:42:41.685Z,1.70
2022-09-27T11:46:16.662Z,1.40
2022-09-27T11:49:07.964Z,1.40
2022-09-27T11:52:01.000Z,1.30
2022-09-27T11:54:56.929Z,1.60
2022-09-27T11:57:34.724Z,1.70
2022-09-27T12:00:20.825Z,1.60
2022-09-27T12:03:42.687Z,2.10
2022-09-27T12:06:32.021Z,1.80
2022-09-27T12:09:19.655Z,1.80
2022-09-27T12:11:58.771Z,1.40
2022-09-27T12:14:39.096Z,1.90
2022-09-27T12:17:15.611Z,1.70
2022-09-27T12:19:52.182Z,1.90
2022-09-27T12:22:57.217Z,1.30
2022-09-27T12:25:25.733Z,1.20
2022-09-27T12:28:11.593Z,1.40
2022-09-27T12:30:45.095Z,1.20
2022-09-27T12:33:32.930Z,1.70
2022-09-27T12:36:07.925Z,1.30
2022-09-27T12:39:12.307Z,1.40
2022-09-27T12:41:48.288Z,1.50
2022-09-27T12:44:22.843Z,1.60
2022-09-27T12:47:23.737Z,1.40
2022-09-27T12:50:30.382Z,1.60
2022-09-27T12:53:08.700Z,1.80
2022-09-27T12:55:47.213Z,1.30
2022-09-27T12:58:27.570Z,1.40
2022-09-27T13:01:07.605Z,1.40
2022-09-27T13:03:40.994Z,1.40
2022-09-27T13:06:21.276Z,1.20
2022-09-27T13:09:08.192Z,1.60
2022-09-27T13:11:54.495Z,1.70
2022-09-27T13:14:27.170Z,1.20
2022-09-27T13:16:55.452Z,1.60
2022-09-27T13:19:35.920Z,1.50
2022-09-27T13:22:07.872Z,1.80
2022-09-27T13:25:47.518Z,1.80
2022-09-27T13:29:00.957Z,2.30
2022-09-27T13:31:59.549Z,1.70
2022-09-27T13:34:44.066Z,2.30
2022-09-27T13:37:36.987Z,1.40
2022-09-27T13:40:24.404Z,1.80
2022-09-27T13:43:11.306Z,1.60
2022-09-27T13:45:55.691Z,1.90
2022-09-27T13:48:39.636Z,2.10
2022-09-27T13:51:44.375Z,2.40
2022-09-27T13:54:39.133Z,1.80
2022-09-27T13:57:39.143Z,1.60
2022-09-27T14:00:31.323Z,1.70
2022-09-27T14:03:11.950Z,1.90
2022-09-27T14:05:52.417Z,2.10
2022-09-27T14:08:38.851Z,3.20
2022-09-27T14:11:18.595Z,2.50
2022-09-27T14:13:48.778Z,1.80
2022-09-27T14:16:20.373Z,1.80
2022-09-27T14:18:58.419Z,1.70
2022-09-27T14:21:40.185Z,1.70
2022-09-27T14:24:45.460Z,1.90
2022-09-27T14:27:22.864Z,1.70
2022-09-27T14:29:57.941Z,2.30
2022-09-27T14:32:34.676Z,2.60
2022-09-27T14:35:27.943Z,2.10
2022-09-27T14:37:56.111Z,2.80
2022-09-27T14:40:25.162Z,2.90
2022-09-27T14:42:59.652Z,2.70
2022-09-27T14:45:36.346Z,3.70
2022-09-27T14:48:30.793Z,3.70
2022-09-27T14:51:08.500Z,4.50
2022-09-27T14:53:46.182Z,2.30
2022-09-27T14:56:23.782Z,2.30
2022-09-27T14:58:57.017Z,2.70
2022-09-27T15:01:24.955Z,2.80
2022-09-27T15:03:53.862Z,2.10
2022-09-27T15:06:22.421Z,2.30
2022-09-27T15:08:51.559Z,2.60
2022-09-27T15:11:20.541Z,2.80
2022-09-27T15:13:52.782Z,2.30
2022-09-27T15:16:22.999Z,2.40
2022-09-27T15:19:03.421Z,2.80
2022-09-27T15:21:32.864Z,3.20
2022-09-27T15:24:02.936Z,3.40
2022-09-27T15:26:41.507Z,2.60
2022-09-27T15:29:26.066Z,2.90
2022-09-27T15:32:03.865Z,3.50
2022-09-27T15:34:34.508Z,2.70
2022-09-27T15:37:06.251Z,2.30
2022-09-27T15:39:40.885Z,2.90
2022-09-27T15:42:19.907Z,2.60
2022-09-27T15:44:58.712Z,3.10
2022-09-27T15:47:32.546Z,2.40
2022-09-27T15:50:26.423Z,2.30
2022-09-27T15:52:57.389Z,2.90
2022-09-27T15:55:28.187Z,3.00
2022-09-27T15:58:02.352Z,3.30
2022-09-27T16:00:30.564Z,4.00
2022-09-27T16:02:58.859Z,3.80
2022-09-27T16:05:30.642Z,4.30
2022-09-27T16:07:59.436Z,3.30
2022-09-27T16:10:37.216Z,4.50
2022-09-27T16:13:05.480Z,3.70
2022-09-27T16:15:33.660Z,6.30
2022-09-27T16:18:01.725Z,8.10
2022-09-27T16:20:32.051Z,8.60
2022-09-27T16:23:00.139Z,7.80
2022-09-27T16:25:28.911Z,5.50
2022-09-27T16:28:01.318Z,7.00
2022-09-27T16:30:30.039Z,6.20
2022-09-27T16:32:59.404Z,5.10
2022-09-27T16:35:28.569Z,4.60
2022-09-27T16:37:58.400Z,4.50
2022-09-27T16:40:28.322Z,4.70
2022-09-27T16:42:56.469Z,4.80
2022-09-27T16:45:33.656Z,6.60
2022-09-27T16:48:02.239Z,8.40
2022-09-27T16:50:48.951Z,4.50
2022-09-27T16:53:17.226Z,4.60
2022-09-27T16:55:45.201Z,4.90
2022-09-27T16:58:13.162Z,4.40
2022-09-27T17:00:42.239Z,5.00
2022-09-27T17:03:10.432Z,4.40
2022-09-27T17:05:38.509Z,4.80
2022-09-27T17:08:06.581Z,5.40
2022-09-27T17:10:35.982Z,5.40
2022-09-27T17:13:04.057Z,5.10
2022-09-27T17:15:32.131Z,4.60
2022-09-27T17:18:00.033Z,3.30
2022-09-27T17:20:28.526Z,3.70
2022-09-27T17:22:56.546Z,3.90
2022-09-27T17:25:24.513Z,4.30
2022-09-27T17:27:52.486Z,4.70
2022-09-27T17:30:21.065Z,4.50
2022-09-27T17:32:49.100Z,4.80
2022-09-27T17:35:17.212Z,4.30
2022-09-27T17:37:45.265Z,4.60
2022-09-27T17:40:14.579Z,4.80
2022-09-27T17:42:43.375Z,4.40
2022-09-27T17:45:11.341Z,4.30
2022-09-27T17:47:58.053Z,4.10
2022-09-27T17:50:27.664Z,4.70
2022-09-27T17:52:58.498Z,5.00
2022-09-27T17:55:27.180Z,5.00
2022-09-27T17:57:55.148Z,5.70
2022-09-27T18:00:23.466Z,5.40
2022-09-27T18:02:51.472Z,4.50
2022-09-27T18:05:21.333Z,5.60
2022-09-27T18:07:49.588Z,6.10
2022-09-27T18:10:18.185Z,5.90
2022-09-27T18:12:46.164Z,7.70
2022-09-27T18:15:17.179Z,6.90
2022-09-27T18:17:46.281Z,6.60
2022-09-27T18:20:14.229Z,6.10
2022-09-27T18:22:42.220Z,6.30
2022-09-27T18:25:12.136Z,6.00
2022-09-27T18:27:41.022Z,5.50
2022-09-27T18:30:09.974Z,5.70
2022-09-27T18:32:37.901Z,5.80
2022-09-27T18:35:07.026Z,6.60
2022-09-27T18:37:35.261Z,6.00
2022-09-27T18:40:03.839Z,6.30
2022-09-27T18:42:31.919Z,6.20
2022-09-27T18:44:59.923Z,6.30
2022-09-27T18:47:28.017Z,6.80
2022-09-27T18:49:56.230Z,7.00
2022-09-27T18:52:24.305Z,7.20
2022-09-27T18:54:52.195Z,7.10
2022-09-27T18:57:20.238Z,6.40
2022-09-27T18:59:49.267Z,6.10
2022-09-27T19:02:17.350Z,6.60
2022-09-27T19:04:45.375Z,8.10
2022-09-27T19:07:13.548Z,7.60
2022-09-27T19:09:41.825Z,7.70
2022-09-27T19:12:10.619Z,6.40
2022-09-27T19:14:38.589Z,6.90
2022-09-27T19:17:06.551Z,6.40
2022-09-27T19:19:34.627Z,7.70
2022-09-27T19:22:03.004Z,7.40
2022-09-27T19:24:31.384Z,7.00
2022-09-27T19:26:59.455Z,6.00
2022-09-27T19:29:27.888Z,6.30
2022-09-27T19:31:55.910Z,6.80
2022-09-27T19:34:23.838Z,7.60
2022-09-27T19:36:51.949Z,7.90
2022-09-27T19:39:20.018Z,7.80
2022-09-27T19:41:47.942Z,7.60
2022-09-27T19:44:15.964Z,7.90
2022-09-27T19:46:45.527Z,9.40
2022-09-27T19:49:13.651Z,9.10
2022-09-27T19:51:41.563Z,7.50
2022-09-27T19:54:10.749Z,8.90
2022-09-27T19:56:39.083Z,7.70
2022-09-27T19:59:07.534Z,7.90
2022-09-27T20:01:36.028Z,7.60
2022-09-27T20:04:04.324Z,7.20
2022-09-27T20:06:32.802Z,7.20
2022-09-27T20:09:03.335Z,8.50
2022-09-27T20:11:32.842Z,7.70
2022-09-27T20:14:01.015Z,7.70
2022-09-27T20:16:29.509Z,8.30
2022-09-27T20:18:59.821Z,7.50
2022-09-27T20:21:34.146Z,8.40
2022-09-27T20:24:04.542Z,9.90
2022-09-27T20:26:36.650Z,10.30
2022-09-27T20:29:06.653Z,11.00
2022-09-27T20:31:37.477Z,11.00
2022-09-27T20:34:12.695Z,11.60
2022-09-27T20:36:44.168Z,11.10
2022-09-27T20:39:14.805Z,12.60
2022-09-27T20:41:46.771Z,11.60
2022-09-27T20:44:17.123Z,10.80
2022-09-27T20:46:46.781Z,10.50
2022-09-27T20:49:17.980Z,11.20
2022-09-27T20:51:51.536Z,10.30
2022-09-27T20:54:19.622Z,10.50
2022-09-27T20:56:49.028Z,10.40
2022-09-27T20:59:18.855Z,9.70
2022-09-27T21:01:49.020Z,10.20
2022-09-27T21:04:19.279Z,10.30
2022-09-27T21:06:47.761Z,9.80
2022-09-27T21:09:19.466Z,9.80
2022-09-27T21:11:49.237Z,10.10
2022-09-27T21:14:17.419Z,9.70
2022-09-27T21:16:45.991Z,9.80
2022-09-27T21:19:14.459Z,9.50
2022-09-27T21:21:42.641Z,9.60
2022-09-27T21:24:11.640Z,10.30
2022-09-27T21:26:39.712Z,10.00
2022-09-27T21:29:11.782Z,10.60
2022-09-27T21:31:39.930Z,10.00
2022-09-27T21:34:08.334Z,9.60
2022-09-27T21:36:38.824Z,9.80
2022-09-27T21:39:08.820Z,10.50
2022-09-27T21:41:39.318Z,10.60
2022-09-27T21:44:08.008Z,10.60
2022-09-27T21:46:40.312Z,9.50
2022-09-27T21:49:08.537Z,10.40
2022-09-27T21:51:41.929Z,10.20
2022-09-27T21:54:14.567Z,10.70
2022-09-27T21:56:44.231Z,10.10
2022-09-27T21:59:15.540Z,10.10
2022-09-27T22:01:45.533Z,9.20
2022-09-27T22:04:14.684Z,8.60
2022-09-27T22:06:43.267Z,7.70
2022-09-27T22:09:17.254Z,8.10
2022-09-27T22:11:47.618Z,7.40
2022-09-27T22:14:19.669Z,7.60
2022-09-27T22:16:48.764Z,7.70
2022-09-27T22:19:17.537Z,7.40
2022-09-27T22:21:46.234Z,7.00
2022-09-27T22:24:17.236Z,5.80
2022-09-27T22:26:48.383Z,5.80
2022-09-27T22:29:17.332Z,6.30
2022-09-27T22:31:45.425Z,6.40
2022-09-27T22:34:18.409Z,5.80
2022-09-27T22:36:47.063Z,5.90
2022-09-27T22:39:15.237Z,5.30
2022-09-27T22:41:43.613Z,5.60
2022-09-27T22:44:11.892Z,5.10
2022-09-27T22:46:40.013Z,5.50
2022-09-27T22:49:08.888Z,5.70
2022-09-27T22:51:37.334Z,5.30
2022-09-27T22:54:05.504Z,5.00
2022-09-27T22:56:33.554Z,4.70
2022-09-27T22:59:01.543Z,4.00
2022-09-27T23:01:29.725Z,3.70
2022-09-27T23:03:59.177Z,4.00
2022-09-27T23:06:27.613Z,4.90
2022-09-27T23:08:58.292Z,4.80
2022-09-27T23:11:26.817Z,3.10
2022-09-27T23:13:54.783Z,2.70
2022-09-27T23:16:24.904Z,3.10
2022-09-27T23:18:55.034Z,3.00
2022-09-27T23:21:26.207Z,3.10
2022-09-27T23:23:56.748Z,3.50
2022-09-27T23:26:27.183Z,4.20
2022-09-27T23:28:56.328Z,5.10
2022-09-27T23:31:29.952Z,5.00
2022-09-27T23:34:01.632Z,4.50
2022-09-27T23:36:29.661Z,4.60
2022-09-27T23:39:01.664Z,4.50
2022-09-27T23:41:29.846Z,4.60
2022-09-27T23:43:58.481Z,4.10
2022-09-27T23:46:26.864Z,4.50
2022-09-27T23:48:55.658Z,5.60
2022-09-27T23:51:23.616Z,4.90
2022-09-27T23:53:51.693Z,4.90
2022-09-27T23:56:19.659Z,5.00
2022-09-27T23:58:47.611Z,5.10
